<?xml version="1.0" encoding="UTF-8" standalone="no" ?>
<gpx xmlns="http://www.topografix.com/GPX/1/1" xmlns:xsi="http://www.w3.org/2001/XMLSchema-instance" xsi:schemaLocation="http://www.topografix.com/GPX/1/1 http://www.topografix.com/GPX/1/1/gpx.xsd" version="1.1" creator="VisuGPX - https://www.visugpx.com">
  <metadata>
    <name>Treigny-Château de Guédelon</name>
    <desc><![CDATA[Treigny-Château de Guédelon : 5km-60m]]></desc>
  </metadata>
  <trk>
    <name><![CDATA[2016-04-02 11:08:05]]></name>
    <trkseg>
      <trkpt lat="47.55071" lon="3.18152">
        <ele>235.23</ele>
        <time>2016-04-02T07:35:09Z</time>
      </trkpt>
      <trkpt lat="47.55071" lon="3.18153">
        <ele>235.23</ele>
        <time>2016-04-02T07:35:10Z</time>
      </trkpt>
      <trkpt lat="47.55076" lon="3.18157">
        <ele>231.7</ele>
        <time>2016-04-02T07:35:18Z</time>
      </trkpt>
      <trkpt lat="47.55083" lon="3.18161">
        <ele>229.23</ele>
        <time>2016-04-02T07:35:27Z</time>
      </trkpt>
      <trkpt lat="47.551" lon="3.18176">
        <ele>228.9</ele>
        <time>2016-04-02T07:35:43Z</time>
      </trkpt>
      <trkpt lat="47.55106" lon="3.18179">
        <ele>228.93</ele>
        <time>2016-04-02T07:35:51Z</time>
      </trkpt>
      <trkpt lat="47.55111" lon="3.18164">
        <ele>228.24</ele>
        <time>2016-04-02T07:36:06Z</time>
      </trkpt>
      <trkpt lat="47.55122" lon="3.18149">
        <ele>226.67</ele>
        <time>2016-04-02T07:36:21Z</time>
      </trkpt>
      <trkpt lat="47.55134" lon="3.18127">
        <ele>224.68</ele>
        <time>2016-04-02T07:36:43Z</time>
      </trkpt>
      <trkpt lat="47.55152" lon="3.181">
        <ele>223.19</ele>
        <time>2016-04-02T07:37:07Z</time>
      </trkpt>
      <trkpt lat="47.55162" lon="3.18068">
        <ele>222.1</ele>
        <time>2016-04-02T07:37:30Z</time>
      </trkpt>
      <trkpt lat="47.55164" lon="3.18051">
        <ele>221.11</ele>
        <time>2016-04-02T07:37:50Z</time>
      </trkpt>
      <trkpt lat="47.55166" lon="3.1804">
        <ele>220.72</ele>
        <time>2016-04-02T07:38:14Z</time>
      </trkpt>
      <trkpt lat="47.55177" lon="3.18013">
        <ele>220.93</ele>
        <time>2016-04-02T07:38:36Z</time>
      </trkpt>
      <trkpt lat="47.55189" lon="3.17985">
        <ele>221.01</ele>
        <time>2016-04-02T07:38:57Z</time>
      </trkpt>
      <trkpt lat="47.55204" lon="3.17963">
        <ele>221.13</ele>
        <time>2016-04-02T07:39:19Z</time>
      </trkpt>
      <trkpt lat="47.55224" lon="3.17947">
        <ele>221.24</ele>
        <time>2016-04-02T07:39:42Z</time>
      </trkpt>
      <trkpt lat="47.55246" lon="3.17929">
        <ele>221.47</ele>
        <time>2016-04-02T07:40:03Z</time>
      </trkpt>
      <trkpt lat="47.55257" lon="3.17919">
        <ele>221.49</ele>
        <time>2016-04-02T07:40:13Z</time>
      </trkpt>
      <trkpt lat="47.55275" lon="3.17897">
        <ele>221.73</ele>
        <time>2016-04-02T07:40:37Z</time>
      </trkpt>
      <trkpt lat="47.55288" lon="3.17878">
        <ele>221.87</ele>
        <time>2016-04-02T07:41:00Z</time>
      </trkpt>
      <trkpt lat="47.55301" lon="3.17859">
        <ele>223.47</ele>
        <time>2016-04-02T07:41:19Z</time>
      </trkpt>
      <trkpt lat="47.55316" lon="3.17837">
        <ele>224.33</ele>
        <time>2016-04-02T07:41:38Z</time>
      </trkpt>
      <trkpt lat="47.55323" lon="3.17806">
        <ele>225.3</ele>
        <time>2016-04-02T07:42:00Z</time>
      </trkpt>
      <trkpt lat="47.55324" lon="3.17772">
        <ele>226</ele>
        <time>2016-04-02T07:42:22Z</time>
      </trkpt>
      <trkpt lat="47.55331" lon="3.17739">
        <ele>226.49</ele>
        <time>2016-04-02T07:42:44Z</time>
      </trkpt>
      <trkpt lat="47.55342" lon="3.1771">
        <ele>226.57</ele>
        <time>2016-04-02T07:43:04Z</time>
      </trkpt>
      <trkpt lat="47.55345" lon="3.1769">
        <ele>226.58</ele>
        <time>2016-04-02T07:43:19Z</time>
      </trkpt>
      <trkpt lat="47.55339" lon="3.17664">
        <ele>226.78</ele>
        <time>2016-04-02T07:43:37Z</time>
      </trkpt>
      <trkpt lat="47.55339" lon="3.17637">
        <ele>227.22</ele>
        <time>2016-04-02T07:43:57Z</time>
      </trkpt>
      <trkpt lat="47.55336" lon="3.17611">
        <ele>227.41</ele>
        <time>2016-04-02T07:44:19Z</time>
      </trkpt>
      <trkpt lat="47.5533" lon="3.17585">
        <ele>227.57</ele>
        <time>2016-04-02T07:44:34Z</time>
      </trkpt>
      <trkpt lat="47.55326" lon="3.17553">
        <ele>228.58</ele>
        <time>2016-04-02T07:44:56Z</time>
      </trkpt>
      <trkpt lat="47.55322" lon="3.17525">
        <ele>229.22</ele>
        <time>2016-04-02T07:45:16Z</time>
      </trkpt>
      <trkpt lat="47.55316" lon="3.17501">
        <ele>230</ele>
        <time>2016-04-02T07:45:35Z</time>
      </trkpt>
      <trkpt lat="47.5531" lon="3.1747">
        <ele>231.46</ele>
        <time>2016-04-02T07:45:56Z</time>
      </trkpt>
      <trkpt lat="47.5531" lon="3.17441">
        <ele>232.93</ele>
        <time>2016-04-02T07:46:18Z</time>
      </trkpt>
      <trkpt lat="47.55313" lon="3.17416">
        <ele>234.8</ele>
        <time>2016-04-02T07:46:42Z</time>
      </trkpt>
      <trkpt lat="47.55309" lon="3.17384">
        <ele>236.19</ele>
        <time>2016-04-02T07:47:03Z</time>
      </trkpt>
      <trkpt lat="47.55304" lon="3.1736">
        <ele>237.06</ele>
        <time>2016-04-02T07:47:19Z</time>
      </trkpt>
      <trkpt lat="47.55298" lon="3.17334">
        <ele>237.82</ele>
        <time>2016-04-02T07:47:37Z</time>
      </trkpt>
      <trkpt lat="47.55295" lon="3.17321">
        <ele>238.11</ele>
        <time>2016-04-02T07:47:44Z</time>
      </trkpt>
      <trkpt lat="47.5529" lon="3.17296">
        <ele>239.1</ele>
        <time>2016-04-02T07:48:01Z</time>
      </trkpt>
      <trkpt lat="47.55285" lon="3.17273">
        <ele>239.74</ele>
        <time>2016-04-02T07:48:18Z</time>
      </trkpt>
      <trkpt lat="47.55287" lon="3.17252">
        <ele>240.49</ele>
        <time>2016-04-02T07:48:28Z</time>
      </trkpt>
      <trkpt lat="47.55293" lon="3.17224">
        <ele>241.21</ele>
        <time>2016-04-02T07:48:44Z</time>
      </trkpt>
      <trkpt lat="47.55295" lon="3.17203">
        <ele>241.57</ele>
        <time>2016-04-02T07:48:57Z</time>
      </trkpt>
      <trkpt lat="47.55297" lon="3.17174">
        <ele>242.19</ele>
        <time>2016-04-02T07:49:14Z</time>
      </trkpt>
      <trkpt lat="47.55298" lon="3.17147">
        <ele>242.54</ele>
        <time>2016-04-02T07:49:31Z</time>
      </trkpt>
      <trkpt lat="47.55299" lon="3.17123">
        <ele>242.98</ele>
        <time>2016-04-02T07:49:48Z</time>
      </trkpt>
      <trkpt lat="47.55299" lon="3.17093">
        <ele>243.85</ele>
        <time>2016-04-02T07:50:05Z</time>
      </trkpt>
      <trkpt lat="47.55306" lon="3.17066">
        <ele>244.77</ele>
        <time>2016-04-02T07:50:21Z</time>
      </trkpt>
      <trkpt lat="47.55311" lon="3.17048">
        <ele>245.58</ele>
        <time>2016-04-02T07:50:36Z</time>
      </trkpt>
      <trkpt lat="47.55315" lon="3.17031">
        <ele>246.42</ele>
        <time>2016-04-02T07:50:53Z</time>
      </trkpt>
      <trkpt lat="47.55322" lon="3.17008">
        <ele>247.32</ele>
        <time>2016-04-02T07:51:10Z</time>
      </trkpt>
      <trkpt lat="47.55326" lon="3.16996">
        <ele>248.21</ele>
        <time>2016-04-02T07:51:20Z</time>
      </trkpt>
      <trkpt lat="47.55332" lon="3.16971">
        <ele>249.23</ele>
        <time>2016-04-02T07:51:37Z</time>
      </trkpt>
      <trkpt lat="47.55334" lon="3.16964">
        <ele>249.81</ele>
        <time>2016-04-02T07:51:42Z</time>
      </trkpt>
      <trkpt lat="47.55336" lon="3.16957">
        <ele>250.18</ele>
        <time>2016-04-02T07:51:47Z</time>
      </trkpt>
      <trkpt lat="47.55344" lon="3.16929">
        <ele>251.63</ele>
        <time>2016-04-02T07:52:07Z</time>
      </trkpt>
      <trkpt lat="47.55348" lon="3.16916">
        <ele>252.47</ele>
        <time>2016-04-02T07:52:17Z</time>
      </trkpt>
      <trkpt lat="47.55358" lon="3.16899">
        <ele>253.64</ele>
        <time>2016-04-02T07:52:34Z</time>
      </trkpt>
      <trkpt lat="47.55372" lon="3.16883">
        <ele>254.92</ele>
        <time>2016-04-02T07:52:52Z</time>
      </trkpt>
      <trkpt lat="47.55376" lon="3.16878">
        <ele>255.32</ele>
        <time>2016-04-02T07:52:58Z</time>
      </trkpt>
      <trkpt lat="47.5538" lon="3.16876">
        <ele>255.59</ele>
        <time>2016-04-02T07:53:02Z</time>
      </trkpt>
      <trkpt lat="47.55392" lon="3.16869">
        <ele>256.33</ele>
        <time>2016-04-02T07:53:16Z</time>
      </trkpt>
      <trkpt lat="47.5541" lon="3.16854">
        <ele>257.24</ele>
        <time>2016-04-02T07:53:36Z</time>
      </trkpt>
      <trkpt lat="47.55428" lon="3.1684">
        <ele>258.83</ele>
        <time>2016-04-02T07:53:56Z</time>
      </trkpt>
      <trkpt lat="47.55449" lon="3.16825">
        <ele>259.85</ele>
        <time>2016-04-02T07:54:16Z</time>
      </trkpt>
      <trkpt lat="47.55462" lon="3.16817">
        <ele>260.4</ele>
        <time>2016-04-02T07:54:30Z</time>
      </trkpt>
      <trkpt lat="47.55463" lon="3.16816">
        <ele>260.49</ele>
        <time>2016-04-02T07:54:32Z</time>
      </trkpt>
      <trkpt lat="47.55467" lon="3.16814">
        <ele>260.64</ele>
        <time>2016-04-02T07:54:36Z</time>
      </trkpt>
      <trkpt lat="47.55481" lon="3.16807">
        <ele>261.36</ele>
        <time>2016-04-02T07:54:50Z</time>
      </trkpt>
      <trkpt lat="47.55484" lon="3.16805">
        <ele>261.44</ele>
        <time>2016-04-02T07:54:53Z</time>
      </trkpt>
      <trkpt lat="47.55498" lon="3.16797">
        <ele>262.17</ele>
        <time>2016-04-02T07:55:10Z</time>
      </trkpt>
      <trkpt lat="47.55517" lon="3.16788">
        <ele>262.64</ele>
        <time>2016-04-02T07:55:30Z</time>
      </trkpt>
      <trkpt lat="47.55534" lon="3.16782">
        <ele>262.88</ele>
        <time>2016-04-02T07:55:45Z</time>
      </trkpt>
      <trkpt lat="47.55538" lon="3.16781">
        <ele>262.93</ele>
        <time>2016-04-02T07:55:48Z</time>
      </trkpt>
      <trkpt lat="47.55556" lon="3.16777">
        <ele>262.68</ele>
        <time>2016-04-02T07:56:03Z</time>
      </trkpt>
      <trkpt lat="47.55575" lon="3.16773">
        <ele>262.7</ele>
        <time>2016-04-02T07:56:17Z</time>
      </trkpt>
      <trkpt lat="47.55594" lon="3.16769">
        <ele>262.47</ele>
        <time>2016-04-02T07:56:32Z</time>
      </trkpt>
      <trkpt lat="47.55614" lon="3.16764">
        <ele>262.07</ele>
        <time>2016-04-02T07:56:49Z</time>
      </trkpt>
      <trkpt lat="47.55634" lon="3.16758">
        <ele>261.78</ele>
        <time>2016-04-02T07:57:07Z</time>
      </trkpt>
      <trkpt lat="47.55642" lon="3.16755">
        <ele>261.67</ele>
        <time>2016-04-02T07:57:16Z</time>
      </trkpt>
      <trkpt lat="47.55659" lon="3.1675">
        <ele>261.49</ele>
        <time>2016-04-02T07:57:33Z</time>
      </trkpt>
      <trkpt lat="47.55672" lon="3.16746">
        <ele>261.15</ele>
        <time>2016-04-02T07:57:44Z</time>
      </trkpt>
      <trkpt lat="47.55692" lon="3.16741">
        <ele>261.03</ele>
        <time>2016-04-02T07:58:00Z</time>
      </trkpt>
      <trkpt lat="47.55712" lon="3.1673">
        <ele>260.92</ele>
        <time>2016-04-02T07:58:17Z</time>
      </trkpt>
      <trkpt lat="47.5573" lon="3.16718">
        <ele>261.11</ele>
        <time>2016-04-02T07:58:32Z</time>
      </trkpt>
      <trkpt lat="47.55741" lon="3.16707">
        <ele>261.16</ele>
        <time>2016-04-02T07:58:45Z</time>
      </trkpt>
      <trkpt lat="47.55745" lon="3.16702">
        <ele>260.94</ele>
        <time>2016-04-02T07:58:50Z</time>
      </trkpt>
      <trkpt lat="47.55757" lon="3.16692">
        <ele>261.15</ele>
        <time>2016-04-02T07:59:03Z</time>
      </trkpt>
      <trkpt lat="47.55758" lon="3.1669">
        <ele>261.18</ele>
        <time>2016-04-02T07:59:05Z</time>
      </trkpt>
      <trkpt lat="47.55774" lon="3.1667">
        <ele>261.39</ele>
        <time>2016-04-02T07:59:24Z</time>
      </trkpt>
      <trkpt lat="47.55788" lon="3.16655">
        <ele>261.46</ele>
        <time>2016-04-02T07:59:40Z</time>
      </trkpt>
      <trkpt lat="47.558" lon="3.16641">
        <ele>261.76</ele>
        <time>2016-04-02T07:59:54Z</time>
      </trkpt>
      <trkpt lat="47.55811" lon="3.16626">
        <ele>261.94</ele>
        <time>2016-04-02T08:00:09Z</time>
      </trkpt>
      <trkpt lat="47.5582" lon="3.16619">
        <ele>262.14</ele>
        <time>2016-04-02T08:00:21Z</time>
      </trkpt>
      <trkpt lat="47.55827" lon="3.16611">
        <ele>262.12</ele>
        <time>2016-04-02T08:00:28Z</time>
      </trkpt>
      <trkpt lat="47.55844" lon="3.1659">
        <ele>262.08</ele>
        <time>2016-04-02T08:00:48Z</time>
      </trkpt>
      <trkpt lat="47.55857" lon="3.1657">
        <ele>262.18</ele>
        <time>2016-04-02T08:01:04Z</time>
      </trkpt>
      <trkpt lat="47.55859" lon="3.16566">
        <ele>262.26</ele>
        <time>2016-04-02T08:01:07Z</time>
      </trkpt>
      <trkpt lat="47.5587" lon="3.16544">
        <ele>262.84</ele>
        <time>2016-04-02T08:01:23Z</time>
      </trkpt>
      <trkpt lat="47.55884" lon="3.16518">
        <ele>263.21</ele>
        <time>2016-04-02T08:01:42Z</time>
      </trkpt>
      <trkpt lat="47.55893" lon="3.16496">
        <ele>263.66</ele>
        <time>2016-04-02T08:01:58Z</time>
      </trkpt>
      <trkpt lat="47.55903" lon="3.16469">
        <ele>264.18</ele>
        <time>2016-04-02T08:02:15Z</time>
      </trkpt>
      <trkpt lat="47.55911" lon="3.1644">
        <ele>264.84</ele>
        <time>2016-04-02T08:02:35Z</time>
      </trkpt>
      <trkpt lat="47.55926" lon="3.16405">
        <ele>266.21</ele>
        <time>2016-04-02T08:02:58Z</time>
      </trkpt>
      <trkpt lat="47.55936" lon="3.16388">
        <ele>266.75</ele>
        <time>2016-04-02T08:03:11Z</time>
      </trkpt>
      <trkpt lat="47.55951" lon="3.16357">
        <ele>268</ele>
        <time>2016-04-02T08:03:34Z</time>
      </trkpt>
      <trkpt lat="47.55965" lon="3.16326">
        <ele>269.19</ele>
        <time>2016-04-02T08:03:56Z</time>
      </trkpt>
      <trkpt lat="47.5598" lon="3.16302">
        <ele>270.66</ele>
        <time>2016-04-02T08:04:18Z</time>
      </trkpt>
      <trkpt lat="47.55993" lon="3.1628">
        <ele>271.79</ele>
        <time>2016-04-02T08:04:37Z</time>
      </trkpt>
      <trkpt lat="47.5601" lon="3.16258">
        <ele>272.96</ele>
        <time>2016-04-02T08:04:58Z</time>
      </trkpt>
      <trkpt lat="47.56021" lon="3.16236">
        <ele>273.79</ele>
        <time>2016-04-02T08:05:18Z</time>
      </trkpt>
      <trkpt lat="47.56034" lon="3.1622">
        <ele>275.65</ele>
        <time>2016-04-02T08:05:41Z</time>
      </trkpt>
      <trkpt lat="47.56047" lon="3.1621">
        <ele>276.8</ele>
        <time>2016-04-02T08:05:58Z</time>
      </trkpt>
      <trkpt lat="47.56067" lon="3.16196">
        <ele>278.01</ele>
        <time>2016-04-02T08:06:20Z</time>
      </trkpt>
      <trkpt lat="47.5609" lon="3.16185">
        <ele>278.72</ele>
        <time>2016-04-02T08:06:40Z</time>
      </trkpt>
      <trkpt lat="47.56109" lon="3.16175">
        <ele>279.8</ele>
        <time>2016-04-02T08:06:58Z</time>
      </trkpt>
      <trkpt lat="47.56111" lon="3.16174">
        <ele>280.02</ele>
        <time>2016-04-02T08:07:00Z</time>
      </trkpt>
      <trkpt lat="47.56133" lon="3.16164">
        <ele>281.09</ele>
        <time>2016-04-02T08:07:21Z</time>
      </trkpt>
      <trkpt lat="47.56155" lon="3.16155">
        <ele>281.19</ele>
        <time>2016-04-02T08:07:41Z</time>
      </trkpt>
      <trkpt lat="47.56176" lon="3.16147">
        <ele>281.59</ele>
        <time>2016-04-02T08:08:00Z</time>
      </trkpt>
      <trkpt lat="47.562" lon="3.16132">
        <ele>281.14</ele>
        <time>2016-04-02T08:08:22Z</time>
      </trkpt>
      <trkpt lat="47.56223" lon="3.16118">
        <ele>281.28</ele>
        <time>2016-04-02T08:08:40Z</time>
      </trkpt>
      <trkpt lat="47.56247" lon="3.16106">
        <ele>280.81</ele>
        <time>2016-04-02T08:08:59Z</time>
      </trkpt>
      <trkpt lat="47.56262" lon="3.16095">
        <ele>280.55</ele>
        <time>2016-04-02T08:09:15Z</time>
      </trkpt>
      <trkpt lat="47.56271" lon="3.16088">
        <ele>280.69</ele>
        <time>2016-04-02T08:09:25Z</time>
      </trkpt>
      <trkpt lat="47.56285" lon="3.16078">
        <ele>280.94</ele>
        <time>2016-04-02T08:09:40Z</time>
      </trkpt>
      <trkpt lat="47.56299" lon="3.16071">
        <ele>280.81</ele>
        <time>2016-04-02T08:09:54Z</time>
      </trkpt>
      <trkpt lat="47.56302" lon="3.16069">
        <ele>280.79</ele>
        <time>2016-04-02T08:09:56Z</time>
      </trkpt>
      <trkpt lat="47.56311" lon="3.16064">
        <ele>280.64</ele>
        <time>2016-04-02T08:10:04Z</time>
      </trkpt>
      <trkpt lat="47.56324" lon="3.16058">
        <ele>280.75</ele>
        <time>2016-04-02T08:10:15Z</time>
      </trkpt>
      <trkpt lat="47.56327" lon="3.16056">
        <ele>280.83</ele>
        <time>2016-04-02T08:10:18Z</time>
      </trkpt>
      <trkpt lat="47.56345" lon="3.16047">
        <ele>281.19</ele>
        <time>2016-04-02T08:10:33Z</time>
      </trkpt>
      <trkpt lat="47.56365" lon="3.16035">
        <ele>281.24</ele>
        <time>2016-04-02T08:10:51Z</time>
      </trkpt>
      <trkpt lat="47.56384" lon="3.16023">
        <ele>281.46</ele>
        <time>2016-04-02T08:11:09Z</time>
      </trkpt>
      <trkpt lat="47.56404" lon="3.16008">
        <ele>282.23</ele>
        <time>2016-04-02T08:11:27Z</time>
      </trkpt>
      <trkpt lat="47.56417" lon="3.15996">
        <ele>282.44</ele>
        <time>2016-04-02T08:11:40Z</time>
      </trkpt>
      <trkpt lat="47.56432" lon="3.15981">
        <ele>283.27</ele>
        <time>2016-04-02T08:11:56Z</time>
      </trkpt>
      <trkpt lat="47.56452" lon="3.15962">
        <ele>284.48</ele>
        <time>2016-04-02T08:12:17Z</time>
      </trkpt>
      <trkpt lat="47.56467" lon="3.15944">
        <ele>285.96</ele>
        <time>2016-04-02T08:12:34Z</time>
      </trkpt>
      <trkpt lat="47.56483" lon="3.1593">
        <ele>285.63</ele>
        <time>2016-04-02T08:12:49Z</time>
      </trkpt>
      <trkpt lat="47.56498" lon="3.1592">
        <ele>284.83</ele>
        <time>2016-04-02T08:13:04Z</time>
      </trkpt>
      <trkpt lat="47.56513" lon="3.15914">
        <ele>284.21</ele>
        <time>2016-04-02T08:13:18Z</time>
      </trkpt>
      <trkpt lat="47.56513" lon="3.15914">
        <ele>284.14</ele>
        <time>2016-04-02T08:13:19Z</time>
      </trkpt>
      <trkpt lat="47.56531" lon="3.15908">
        <ele>283.4</ele>
        <time>2016-04-02T08:13:31Z</time>
      </trkpt>
      <trkpt lat="47.56551" lon="3.15904">
        <ele>282.47</ele>
        <time>2016-04-02T08:13:46Z</time>
      </trkpt>
      <trkpt lat="47.56563" lon="3.159">
        <ele>281.76</ele>
        <time>2016-04-02T08:14:04Z</time>
      </trkpt>
      <trkpt lat="47.56573" lon="3.15897">
        <ele>281.32</ele>
        <time>2016-04-02T08:14:28Z</time>
      </trkpt>
      <trkpt lat="47.56574" lon="3.15896">
        <ele>281.18</ele>
        <time>2016-04-02T08:14:47Z</time>
      </trkpt>
      <trkpt lat="47.56574" lon="3.15895">
        <ele>281.15</ele>
        <time>2016-04-02T08:14:49Z</time>
      </trkpt>
      <trkpt lat="47.56689" lon="3.15819">
        <ele>275.58</ele>
        <time>2016-04-02T08:25:03Z</time>
      </trkpt>
      <trkpt lat="47.56704" lon="3.15808">
        <ele>274.74</ele>
        <time>2016-04-02T08:25:18Z</time>
      </trkpt>
      <trkpt lat="47.56709" lon="3.15806">
        <ele>274.58</ele>
        <time>2016-04-02T08:25:23Z</time>
      </trkpt>
      <trkpt lat="47.56723" lon="3.15797">
        <ele>274.11</ele>
        <time>2016-04-02T08:25:37Z</time>
      </trkpt>
      <trkpt lat="47.5673" lon="3.1579">
        <ele>273.95</ele>
        <time>2016-04-02T08:25:48Z</time>
      </trkpt>
      <trkpt lat="47.56742" lon="3.15785">
        <ele>273.71</ele>
        <time>2016-04-02T08:26:04Z</time>
      </trkpt>
      <trkpt lat="47.56745" lon="3.15783">
        <ele>273.65</ele>
        <time>2016-04-02T08:26:07Z</time>
      </trkpt>
      <trkpt lat="47.56759" lon="3.15773">
        <ele>273.11</ele>
        <time>2016-04-02T08:26:24Z</time>
      </trkpt>
      <trkpt lat="47.56775" lon="3.15762">
        <ele>273.09</ele>
        <time>2016-04-02T08:26:39Z</time>
      </trkpt>
      <trkpt lat="47.56789" lon="3.15751">
        <ele>272.83</ele>
        <time>2016-04-02T08:26:54Z</time>
      </trkpt>
      <trkpt lat="47.56805" lon="3.15738">
        <ele>272.9</ele>
        <time>2016-04-02T08:27:12Z</time>
      </trkpt>
      <trkpt lat="47.56807" lon="3.15737">
        <ele>272.83</ele>
        <time>2016-04-02T08:27:14Z</time>
      </trkpt>
      <trkpt lat="47.56817" lon="3.1573">
        <ele>272.67</ele>
        <time>2016-04-02T08:27:26Z</time>
      </trkpt>
      <trkpt lat="47.56835" lon="3.15717">
        <ele>273.05</ele>
        <time>2016-04-02T08:27:44Z</time>
      </trkpt>
      <trkpt lat="47.56848" lon="3.15722">
        <ele>272.64</ele>
        <time>2016-04-02T08:28:03Z</time>
      </trkpt>
      <trkpt lat="47.56861" lon="3.15739">
        <ele>271.5</ele>
        <time>2016-04-02T08:28:24Z</time>
      </trkpt>
      <trkpt lat="47.56883" lon="3.15763">
        <ele>270.33</ele>
        <time>2016-04-02T08:28:44Z</time>
      </trkpt>
      <trkpt lat="47.56889" lon="3.15771">
        <ele>269.79</ele>
        <time>2016-04-02T08:28:51Z</time>
      </trkpt>
      <trkpt lat="47.56903" lon="3.15808">
        <ele>268.4</ele>
        <time>2016-04-02T08:29:14Z</time>
      </trkpt>
      <trkpt lat="47.5691" lon="3.15818">
        <ele>267.29</ele>
        <time>2016-04-02T08:29:26Z</time>
      </trkpt>
      <trkpt lat="47.56922" lon="3.15824">
        <ele>265.67</ele>
        <time>2016-04-02T08:29:48Z</time>
      </trkpt>
      <trkpt lat="47.56933" lon="3.15841">
        <ele>265.08</ele>
        <time>2016-04-02T08:30:11Z</time>
      </trkpt>
      <trkpt lat="47.56943" lon="3.15849">
        <ele>265.03</ele>
        <time>2016-04-02T08:30:19Z</time>
      </trkpt>
      <trkpt lat="47.56954" lon="3.15853">
        <ele>264.99</ele>
        <time>2016-04-02T08:30:28Z</time>
      </trkpt>
      <trkpt lat="47.56956" lon="3.15854">
        <ele>264.94</ele>
        <time>2016-04-02T08:30:30Z</time>
      </trkpt>
      <trkpt lat="47.56966" lon="3.15855">
        <ele>264.78</ele>
        <time>2016-04-02T08:30:39Z</time>
      </trkpt>
      <trkpt lat="47.56983" lon="3.15863">
        <ele>264.59</ele>
        <time>2016-04-02T08:30:55Z</time>
      </trkpt>
      <trkpt lat="47.57001" lon="3.15871">
        <ele>263.97</ele>
        <time>2016-04-02T08:31:15Z</time>
      </trkpt>
      <trkpt lat="47.57023" lon="3.15877">
        <ele>263.65</ele>
        <time>2016-04-02T08:31:34Z</time>
      </trkpt>
      <trkpt lat="47.57041" lon="3.15884">
        <ele>263.05</ele>
        <time>2016-04-02T08:31:54Z</time>
      </trkpt>
      <trkpt lat="47.57054" lon="3.15888">
        <ele>262.74</ele>
        <time>2016-04-02T08:32:16Z</time>
      </trkpt>
      <trkpt lat="47.57055" lon="3.15889">
        <ele>262.71</ele>
        <time>2016-04-02T08:32:17Z</time>
      </trkpt>
      <trkpt lat="47.57061" lon="3.15892">
        <ele>262.5</ele>
        <time>2016-04-02T08:32:24Z</time>
      </trkpt>
      <trkpt lat="47.57074" lon="3.15896">
        <ele>262.23</ele>
        <time>2016-04-02T08:32:38Z</time>
      </trkpt>
      <trkpt lat="47.57096" lon="3.15905">
        <ele>261.18</ele>
        <time>2016-04-02T08:32:58Z</time>
      </trkpt>
      <trkpt lat="47.57109" lon="3.1591">
        <ele>260.77</ele>
        <time>2016-04-02T08:33:12Z</time>
      </trkpt>
      <trkpt lat="47.57135" lon="3.1592">
        <ele>260.17</ele>
        <time>2016-04-02T08:33:32Z</time>
      </trkpt>
      <trkpt lat="47.57148" lon="3.15932">
        <ele>259.62</ele>
        <time>2016-04-02T08:33:49Z</time>
      </trkpt>
      <trkpt lat="47.57153" lon="3.15934">
        <ele>259.19</ele>
        <time>2016-04-02T08:33:56Z</time>
      </trkpt>
      <trkpt lat="47.57159" lon="3.15935">
        <ele>258.95</ele>
        <time>2016-04-02T08:34:03Z</time>
      </trkpt>
      <trkpt lat="47.57162" lon="3.15938">
        <ele>258.78</ele>
        <time>2016-04-02T08:34:08Z</time>
      </trkpt>
      <trkpt lat="47.57171" lon="3.15938">
        <ele>258.48</ele>
        <time>2016-04-02T08:34:17Z</time>
      </trkpt>
      <trkpt lat="47.57177" lon="3.1594">
        <ele>258.28</ele>
        <time>2016-04-02T08:34:23Z</time>
      </trkpt>
      <trkpt lat="47.5718" lon="3.15942">
        <ele>258.17</ele>
        <time>2016-04-02T08:34:26Z</time>
      </trkpt>
      <trkpt lat="47.57185" lon="3.15944">
        <ele>257.9</ele>
        <time>2016-04-02T08:34:31Z</time>
      </trkpt>
      <trkpt lat="47.57199" lon="3.15951">
        <ele>256.21</ele>
        <time>2016-04-02T08:34:50Z</time>
      </trkpt>
      <trkpt lat="47.57218" lon="3.15961">
        <ele>255.01</ele>
        <time>2016-04-02T08:35:06Z</time>
      </trkpt>
      <trkpt lat="47.57238" lon="3.15964">
        <ele>254.03</ele>
        <time>2016-04-02T08:35:26Z</time>
      </trkpt>
      <trkpt lat="47.57255" lon="3.15963">
        <ele>252.86</ele>
        <time>2016-04-02T08:35:46Z</time>
      </trkpt>
      <trkpt lat="47.57276" lon="3.15952">
        <ele>252.29</ele>
        <time>2016-04-02T08:36:08Z</time>
      </trkpt>
      <trkpt lat="47.573" lon="3.1595">
        <ele>253.87</ele>
        <time>2016-04-02T08:36:30Z</time>
      </trkpt>
      <trkpt lat="47.57321" lon="3.15943">
        <ele>254.95</ele>
        <time>2016-04-02T08:36:52Z</time>
      </trkpt>
      <trkpt lat="47.57342" lon="3.15938">
        <ele>255.28</ele>
        <time>2016-04-02T08:37:13Z</time>
      </trkpt>
      <trkpt lat="47.57356" lon="3.15936">
        <ele>255.54</ele>
        <time>2016-04-02T08:37:26Z</time>
      </trkpt>
      <trkpt lat="47.57369" lon="3.15932">
        <ele>255.41</ele>
        <time>2016-04-02T08:37:37Z</time>
      </trkpt>
      <trkpt lat="47.57379" lon="3.1593">
        <ele>255.24</ele>
        <time>2016-04-02T08:37:47Z</time>
      </trkpt>
      <trkpt lat="47.57384" lon="3.15927">
        <ele>255.11</ele>
        <time>2016-04-02T08:37:52Z</time>
      </trkpt>
      <trkpt lat="47.57398" lon="3.15923">
        <ele>254.97</ele>
        <time>2016-04-02T08:38:06Z</time>
      </trkpt>
      <trkpt lat="47.57414" lon="3.15919">
        <ele>255.27</ele>
        <time>2016-04-02T08:38:21Z</time>
      </trkpt>
      <trkpt lat="47.57433" lon="3.15914">
        <ele>255.06</ele>
        <time>2016-04-02T08:38:38Z</time>
      </trkpt>
      <trkpt lat="47.57452" lon="3.1591">
        <ele>255.27</ele>
        <time>2016-04-02T08:38:54Z</time>
      </trkpt>
      <trkpt lat="47.57469" lon="3.15904">
        <ele>254.82</ele>
        <time>2016-04-02T08:39:09Z</time>
      </trkpt>
      <trkpt lat="47.5749" lon="3.15898">
        <ele>254.4</ele>
        <time>2016-04-02T08:39:30Z</time>
      </trkpt>
      <trkpt lat="47.57499" lon="3.15895">
        <ele>254.22</ele>
        <time>2016-04-02T08:39:40Z</time>
      </trkpt>
      <trkpt lat="47.57512" lon="3.15891">
        <ele>254.14</ele>
        <time>2016-04-02T08:39:52Z</time>
      </trkpt>
      <trkpt lat="47.57524" lon="3.15885">
        <ele>253.83</ele>
        <time>2016-04-02T08:40:06Z</time>
      </trkpt>
      <trkpt lat="47.57546" lon="3.15878">
        <ele>253.59</ele>
        <time>2016-04-02T08:40:27Z</time>
      </trkpt>
      <trkpt lat="47.57568" lon="3.15877">
        <ele>253.33</ele>
        <time>2016-04-02T08:40:46Z</time>
      </trkpt>
      <trkpt lat="47.57587" lon="3.15871">
        <ele>252.45</ele>
        <time>2016-04-02T08:41:02Z</time>
      </trkpt>
      <trkpt lat="47.57607" lon="3.15864">
        <ele>252.02</ele>
        <time>2016-04-02T08:41:22Z</time>
      </trkpt>
      <trkpt lat="47.57632" lon="3.15857">
        <ele>251.15</ele>
        <time>2016-04-02T08:41:44Z</time>
      </trkpt>
      <trkpt lat="47.57656" lon="3.15847">
        <ele>250.42</ele>
        <time>2016-04-02T08:42:06Z</time>
      </trkpt>
      <trkpt lat="47.57673" lon="3.15837">
        <ele>250.55</ele>
        <time>2016-04-02T08:42:21Z</time>
      </trkpt>
      <trkpt lat="47.57692" lon="3.15827">
        <ele>250.35</ele>
        <time>2016-04-02T08:42:37Z</time>
      </trkpt>
      <trkpt lat="47.5771" lon="3.15817">
        <ele>249.83</ele>
        <time>2016-04-02T08:42:56Z</time>
      </trkpt>
      <trkpt lat="47.57726" lon="3.15805">
        <ele>249.4</ele>
        <time>2016-04-02T08:43:10Z</time>
      </trkpt>
      <trkpt lat="47.57731" lon="3.158">
        <ele>249.21</ele>
        <time>2016-04-02T08:43:15Z</time>
      </trkpt>
      <trkpt lat="47.57754" lon="3.15785">
        <ele>248.84</ele>
        <time>2016-04-02T08:43:38Z</time>
      </trkpt>
      <trkpt lat="47.57771" lon="3.1577">
        <ele>248.77</ele>
        <time>2016-04-02T08:44:00Z</time>
      </trkpt>
      <trkpt lat="47.57785" lon="3.15753">
        <ele>248.32</ele>
        <time>2016-04-02T08:44:22Z</time>
      </trkpt>
      <trkpt lat="47.57809" lon="3.15736">
        <ele>249.23</ele>
        <time>2016-04-02T08:44:45Z</time>
      </trkpt>
      <trkpt lat="47.57827" lon="3.15736">
        <ele>249.39</ele>
        <time>2016-04-02T08:45:10Z</time>
      </trkpt>
      <trkpt lat="47.57837" lon="3.15729">
        <ele>249.54</ele>
        <time>2016-04-02T08:45:25Z</time>
      </trkpt>
      <trkpt lat="47.57845" lon="3.15722">
        <ele>249.95</ele>
        <time>2016-04-02T08:45:31Z</time>
      </trkpt>
      <trkpt lat="47.57861" lon="3.15712">
        <ele>250.51</ele>
        <time>2016-04-02T08:45:43Z</time>
      </trkpt>
      <trkpt lat="47.57862" lon="3.15711">
        <ele>250.54</ele>
        <time>2016-04-02T08:45:44Z</time>
      </trkpt>
      <trkpt lat="47.57866" lon="3.15705">
        <ele>250.83</ele>
        <time>2016-04-02T08:45:49Z</time>
      </trkpt>
      <trkpt lat="47.57872" lon="3.15703">
        <ele>250.96</ele>
        <time>2016-04-02T08:45:53Z</time>
      </trkpt>
      <trkpt lat="47.57886" lon="3.15693">
        <ele>251.05</ele>
        <time>2016-04-02T08:46:07Z</time>
      </trkpt>
      <trkpt lat="47.57903" lon="3.15673">
        <ele>251.38</ele>
        <time>2016-04-02T08:46:28Z</time>
      </trkpt>
      <trkpt lat="47.57919" lon="3.15648">
        <ele>251.64</ele>
        <time>2016-04-02T08:46:49Z</time>
      </trkpt>
      <trkpt lat="47.57931" lon="3.1563">
        <ele>251.51</ele>
        <time>2016-04-02T08:47:07Z</time>
      </trkpt>
      <trkpt lat="47.57952" lon="3.15621">
        <ele>251.54</ele>
        <time>2016-04-02T08:47:33Z</time>
      </trkpt>
      <trkpt lat="47.57968" lon="3.15609">
        <ele>252.04</ele>
        <time>2016-04-02T08:47:51Z</time>
      </trkpt>
      <trkpt lat="47.57987" lon="3.15589">
        <ele>252.6</ele>
        <time>2016-04-02T08:48:12Z</time>
      </trkpt>
      <trkpt lat="47.57996" lon="3.15583">
        <ele>252.32</ele>
        <time>2016-04-02T08:48:26Z</time>
      </trkpt>
      <trkpt lat="47.58" lon="3.15578">
        <ele>252.34</ele>
        <time>2016-04-02T08:48:30Z</time>
      </trkpt>
      <trkpt lat="47.58004" lon="3.15571">
        <ele>252.2</ele>
        <time>2016-04-02T08:48:38Z</time>
      </trkpt>
      <trkpt lat="47.58005" lon="3.15569">
        <ele>252.05</ele>
        <time>2016-04-02T08:48:40Z</time>
      </trkpt>
      <trkpt lat="47.58012" lon="3.15552">
        <ele>252.39</ele>
        <time>2016-04-02T08:48:55Z</time>
      </trkpt>
      <trkpt lat="47.58014" lon="3.15548">
        <ele>252.42</ele>
        <time>2016-04-02T08:48:59Z</time>
      </trkpt>
      <trkpt lat="47.58021" lon="3.15523">
        <ele>252.12</ele>
        <time>2016-04-02T08:49:14Z</time>
      </trkpt>
      <trkpt lat="47.5804" lon="3.15496">
        <ele>251.88</ele>
        <time>2016-04-02T08:49:35Z</time>
      </trkpt>
      <trkpt lat="47.58053" lon="3.15482">
        <ele>250.78</ele>
        <time>2016-04-02T08:49:56Z</time>
      </trkpt>
      <trkpt lat="47.58064" lon="3.15487">
        <ele>251.16</ele>
        <time>2016-04-02T08:50:24Z</time>
      </trkpt>
      <trkpt lat="47.58072" lon="3.15479">
        <ele>251.43</ele>
        <time>2016-04-02T08:50:49Z</time>
      </trkpt>
      <trkpt lat="47.58081" lon="3.15486">
        <ele>251.37</ele>
        <time>2016-04-02T08:51:11Z</time>
      </trkpt>
      <trkpt lat="47.58088" lon="3.15508">
        <ele>251.13</ele>
        <time>2016-04-02T08:51:29Z</time>
      </trkpt>
      <trkpt lat="47.58104" lon="3.15531">
        <ele>250.72</ele>
        <time>2016-04-02T08:51:52Z</time>
      </trkpt>
      <trkpt lat="47.5812" lon="3.15563">
        <ele>250.76</ele>
        <time>2016-04-02T08:52:14Z</time>
      </trkpt>
      <trkpt lat="47.58131" lon="3.15559">
        <ele>250.26</ele>
        <time>2016-04-02T08:52:30Z</time>
      </trkpt>
      <trkpt lat="47.58142" lon="3.15549">
        <ele>250.39</ele>
        <time>2016-04-02T08:52:51Z</time>
      </trkpt>
      <trkpt lat="47.58156" lon="3.15543">
        <ele>250.61</ele>
        <time>2016-04-02T08:53:13Z</time>
      </trkpt>
      <trkpt lat="47.58155" lon="3.15543">
        <ele>250.59</ele>
        <time>2016-04-02T08:53:43Z</time>
      </trkpt>
    </trkseg>
  </trk>
</gpx>